PWSweather.com
Personal Weather Stations
Station Observations
GEELONGWX1
Bell Post Hill, GeelongAU

Bell Post HillGeelongAU

Lat: -38.101, Lon: 144.326

Elevation: 204

Station Type: Davis Vantage Pro2

http://www.geelongweather.com

Latest ConditionsUpdated 1:40:01 PM GMT+10:10 Saturday, Jul 21, 2018
Currently Today's Max Today's Min Today's Average
Temperature 56.4°F13.6°C 56.4°F13.6°C 39.4°F4.1°C 44.4°F6.9°C
Dew Point 43.5°F6.4°C 49.3°F9.6°C 37.3°F2.9°C 41.2°F5.1°C
Winds 8.1 mph SW13.0 kmh SW 8.1 mph -13.0 kmh - - 4.2 mph 6.8 kmh
Wind Gusts 13.8 mph22.2 kmh 13.8 mph22.2 kmh - -
Humidity 62% 95% 62% 89%
Pressure 30.22 in1023.4 mb 30.27 in1025.1 mb 30.13 in1020.3 mb -
Precipitation - 0.01 in0.3 mm - -
Hour Temp Dew Point Humidity Winds Wind Gusts Pressure Precip Precip Rate Daily Precip Total
01:40 PM 56.4°F13.6°C 43.5°F6.4°C 62% 8.1 mph SW13.0 kmh SW 13.8 mph22.2 kmh 30.22 in1023.4 mb - 0.01 in0.3 mm 0.01 in0.3 mm
01:30 PM 56.1°F13.4°C 44.1°F6.7°C 64% 5.8 mph SW9.3 kmh SW 9.2 mph14.8 kmh 30.22 in1023.4 mb - 0.00 in0.0 mm 0.00 in0.0 mm
01:20 PM 55.9°F13.3°C 44.7°F7.1°C 66% 3.5 mph WSW5.6 kmh WSW 3.5 mph5.6 kmh 30.22 in1023.4 mb - 0.00 in0.0 mm 0.00 in0.0 mm
01:10 PM 56.3°F13.5°C 44.7°F7.1°C 65% 6.9 mph SW11.1 kmh SW 9.2 mph14.8 kmh 30.23 in1023.7 mb - 0.00 in0.0 mm 0.00 in0.0 mm
01:00 PM 56.2°F13.4°C 46.1°F7.8°C 69% 4.6 mph SW7.4 kmh SW 11.5 mph18.5 kmh 30.23 in1023.7 mb - 0.00 in0.0 mm 0.00 in0.0 mm
12:50 PM 55.3°F12.9°C 45.7°F7.6°C 70% 5.8 mph SW9.3 kmh SW 8.1 mph13.0 kmh 30.23 in1023.7 mb - 0.00 in0.0 mm 0.00 in0.0 mm
12:40 PM 55.0°F12.8°C 45.4°F7.4°C 70% 6.9 mph SW11.1 kmh SW 11.5 mph18.5 kmh 30.24 in1024.0 mb - 0.00 in0.0 mm 0.00 in0.0 mm
12:30 PM 55.2°F12.9°C 46.4°F8.0°C 72% 6.9 mph SW11.1 kmh SW 10.4 mph16.7 kmh 30.24 in1024.0 mb - 0.00 in0.0 mm 0.00 in0.0 mm
12:20 PM 55.2°F12.9°C 47.4°F8.6°C 75% 4.6 mph SSW7.4 kmh SSW 8.1 mph13.0 kmh 30.25 in1024.4 mb - 0.00 in0.0 mm 0.00 in0.0 mm
12:10 PM 55.1°F12.8°C 48.4°F9.1°C 78% 5.8 mph SW9.3 kmh SW 9.2 mph14.8 kmh 30.25 in1024.4 mb - 0.00 in0.0 mm 0.00 in0.0 mm
12:00 PM 54.3°F12.4°C 47.9°F8.8°C 79% 4.6 mph SW7.4 kmh SW 8.1 mph13.0 kmh 30.25 in1024.4 mb - 0.00 in0.0 mm 0.00 in0.0 mm
11:50 AM 53.9°F12.2°C 48.2°F9.0°C 81% 3.5 mph SW5.6 kmh SW 4.6 mph7.4 kmh 30.26 in1024.7 mb - 0.00 in0.0 mm 0.00 in0.0 mm
11:40 AM 53.6°F12.0°C 48.6°F9.2°C 83% 6.9 mph SW11.1 kmh SW 6.9 mph11.1 kmh 30.26 in1024.7 mb - 0.00 in0.0 mm 0.00 in0.0 mm
11:30 AM 53.2°F11.8°C 49.1°F9.5°C 86% 4.6 mph SW7.4 kmh SW 6.9 mph11.1 kmh 30.26 in1024.7 mb - 0.00 in0.0 mm 0.00 in0.0 mm
11:20 AM 52.4°F11.3°C 49.3°F9.6°C 89% 3.5 mph SW5.6 kmh SW 5.8 mph9.3 kmh 30.26 in1024.7 mb - 0.00 in0.0 mm 0.00 in0.0 mm
11:10 AM 51.7°F10.9°C 49.1°F9.5°C 91% 6.9 mph SW11.1 kmh SW 9.2 mph14.8 kmh 30.26 in1024.7 mb - 0.00 in0.0 mm 0.00 in0.0 mm
11:00 AM 51.0°F10.6°C 49.0°F9.4°C 93% 3.5 mph WSW5.6 kmh WSW 6.9 mph11.1 kmh 30.27 in1025.1 mb - 0.00 in0.0 mm 0.00 in0.0 mm
10:50 AM 50.2°F10.1°C 48.2°F9.0°C 93% 5.8 mph SW9.3 kmh SW 10.4 mph16.7 kmh 30.27 in1025.1 mb - 0.00 in0.0 mm 0.00 in0.0 mm
10:40 AM 49.7°F9.8°C 48.1°F8.9°C 94% 6.9 mph SW11.1 kmh SW 11.5 mph18.5 kmh 30.27 in1025.1 mb - 0.00 in0.0 mm 0.00 in0.0 mm
10:30 AM 49.0°F9.4°C 47.3°F8.5°C 94% 4.6 mph SW7.4 kmh SW 5.8 mph9.3 kmh 30.27 in1025.1 mb - 0.00 in0.0 mm 0.00 in0.0 mm
10:20 AM 48.3°F9.1°C 46.7°F8.2°C 94% 4.6 mph SW7.4 kmh SW 6.9 mph11.1 kmh 30.27 in1025.1 mb - 0.00 in0.0 mm 0.00 in0.0 mm
10:10 AM 47.7°F8.7°C 46.1°F7.8°C 94% 4.6 mph SW7.4 kmh SW 5.8 mph9.3 kmh 30.27 in1025.1 mb - 0.00 in0.0 mm 0.00 in0.0 mm
10:00 AM 47.1°F8.4°C 45.7°F7.6°C 95% 3.5 mph WSW5.6 kmh WSW 5.8 mph9.3 kmh 30.27 in1025.1 mb - 0.00 in0.0 mm 0.00 in0.0 mm
09:50 AM 46.2°F7.9°C 44.5°F6.9°C 94% 3.5 mph SW5.6 kmh SW 3.5 mph5.6 kmh 30.27 in1025.1 mb - 0.00 in0.0 mm 0.00 in0.0 mm
09:40 AM 45.3°F7.4°C 43.9°F6.6°C 95% 3.5 mph SSW5.6 kmh SSW 4.6 mph7.4 kmh 30.27 in1025.1 mb - 0.00 in0.0 mm 0.00 in0.0 mm
09:30 AM 44.1°F6.7°C 42.4°F5.8°C 94% 4.6 mph S7.4 kmh S 4.6 mph7.4 kmh 30.27 in1025.1 mb - 0.00 in0.0 mm 0.00 in0.0 mm
09:20 AM 43.3°F6.3°C 41.7°F5.4°C 94% 3.5 mph S5.6 kmh S 4.6 mph7.4 kmh 30.27 in1025.1 mb - 0.00 in0.0 mm 0.00 in0.0 mm
09:10 AM 42.7°F5.9°C 41.1°F5.1°C 94% 3.5 mph S5.6 kmh S 3.5 mph5.6 kmh 30.26 in1024.7 mb - 0.00 in0.0 mm 0.00 in0.0 mm
09:00 AM 41.8°F5.4°C 40.2°F4.6°C 94% 3.5 mph S5.6 kmh S 3.5 mph5.6 kmh 30.26 in1024.7 mb - 0.00 in0.0 mm 0.00 in0.0 mm
08:50 AM 41.3°F5.2°C 39.4°F4.1°C 93% 3.5 mph S5.6 kmh S 3.5 mph5.6 kmh 30.26 in1024.7 mb - 0.00 in0.0 mm 0.00 in0.0 mm
08:40 AM 40.9°F4.9°C 39.3°F4.1°C 94% 2.3 mph S3.7 kmh S 3.5 mph5.6 kmh 30.25 in1024.4 mb - 0.00 in0.0 mm 0.00 in0.0 mm
08:30 AM 40.6°F4.8°C 38.7°F3.7°C 93% 1.2 mph S1.9 kmh S 3.5 mph5.6 kmh 30.25 in1024.4 mb - 0.00 in0.0 mm 0.00 in0.0 mm
08:20 AM 40.3°F4.6°C 38.4°F3.6°C 93% 2.3 mph S3.7 kmh S 3.5 mph5.6 kmh 30.25 in1024.4 mb - 0.00 in0.0 mm 0.00 in0.0 mm
08:10 AM 40.0°F4.4°C 38.1°F3.4°C 93% 4.6 mph S7.4 kmh S 4.6 mph7.4 kmh 30.25 in1024.4 mb - 0.00 in0.0 mm 0.00 in0.0 mm
08:00 AM 39.7°F4.3°C 37.8°F3.2°C 93% 4.6 mph S7.4 kmh S 6.9 mph11.1 kmh 30.25 in1024.4 mb - 0.00 in0.0 mm 0.00 in0.0 mm
07:50 AM 39.5°F4.2°C 37.6°F3.1°C 93% 4.6 mph S7.4 kmh S 6.9 mph11.1 kmh 30.24 in1024.0 mb - 0.00 in0.0 mm 0.00 in0.0 mm
07:40 AM 39.6°F4.2°C 37.7°F3.2°C 93% 4.6 mph S7.4 kmh S 5.8 mph9.3 kmh 30.24 in1024.0 mb - 0.00 in0.0 mm 0.00 in0.0 mm
07:30 AM 39.6°F4.2°C 37.7°F3.2°C 93% 4.6 mph S7.4 kmh S 5.8 mph9.3 kmh 30.23 in1023.7 mb - 0.00 in0.0 mm 0.00 in0.0 mm
07:20 AM 39.6°F4.2°C 37.7°F3.2°C 93% 4.6 mph SSW7.4 kmh SSW 5.8 mph9.3 kmh 30.23 in1023.7 mb - 0.00 in0.0 mm 0.00 in0.0 mm
07:10 AM 39.7°F4.3°C 37.5°F3.1°C 92% 3.5 mph SSW5.6 kmh SSW 4.6 mph7.4 kmh 30.23 in1023.7 mb - 0.00 in0.0 mm 0.00 in0.0 mm
07:00 AM 39.6°F4.2°C 37.7°F3.2°C 93% 3.5 mph S5.6 kmh S 5.8 mph9.3 kmh 30.23 in1023.7 mb - 0.00 in0.0 mm 0.00 in0.0 mm
06:50 AM 39.5°F4.2°C 37.6°F3.1°C 93% 4.6 mph S7.4 kmh S 5.8 mph9.3 kmh 30.22 in1023.4 mb - 0.00 in0.0 mm 0.00 in0.0 mm
06:40 AM 39.4°F4.1°C 37.3°F2.9°C 92% 4.6 mph S7.4 kmh S 5.8 mph9.3 kmh 30.22 in1023.4 mb - 0.00 in0.0 mm 0.00 in0.0 mm
06:30 AM 39.4°F4.1°C 37.3°F2.9°C 92% 3.5 mph S5.6 kmh S 4.6 mph7.4 kmh 30.22 in1023.4 mb - 0.00 in0.0 mm 0.00 in0.0 mm
06:20 AM 39.4°F4.1°C 37.3°F2.9°C 92% 4.6 mph S7.4 kmh S 4.6 mph7.4 kmh 30.21 in1023.0 mb - 0.00 in0.0 mm 0.00 in0.0 mm
06:10 AM 39.6°F4.2°C 37.5°F3.1°C 92% 2.3 mph S3.7 kmh S 4.6 mph7.4 kmh 30.21 in1023.0 mb - 0.00 in0.0 mm 0.00 in0.0 mm
06:00 AM 39.8°F4.3°C 37.6°F3.1°C 92% 3.5 mph S5.6 kmh S 3.5 mph5.6 kmh 30.20 in1022.7 mb - 0.00 in0.0 mm 0.00 in0.0 mm
05:50 AM 39.7°F4.3°C 37.6°F3.1°C 92% 4.6 mph SW7.4 kmh SW 5.8 mph9.3 kmh 30.19 in1022.4 mb - 0.00 in0.0 mm 0.00 in0.0 mm
05:40 AM 39.5°F4.2°C 37.4°F3.0°C 92% 4.6 mph SSW7.4 kmh SSW 5.8 mph9.3 kmh 30.19 in1022.4 mb - 0.00 in0.0 mm 0.00 in0.0 mm
05:30 AM 39.6°F4.2°C 37.5°F3.1°C 92% 3.5 mph S5.6 kmh S 5.8 mph9.3 kmh 30.19 in1022.4 mb - 0.00 in0.0 mm 0.00 in0.0 mm
05:20 AM 39.8°F4.3°C 37.7°F3.2°C 92% 3.5 mph SSW5.6 kmh SSW 4.6 mph7.4 kmh 30.19 in1022.4 mb - 0.00 in0.0 mm 0.00 in0.0 mm
05:10 AM 39.9°F4.4°C 37.8°F3.2°C 92% 3.5 mph SW5.6 kmh SW 3.5 mph5.6 kmh 30.19 in1022.4 mb - 0.00 in0.0 mm 0.00 in0.0 mm
05:00 AM 39.9°F4.4°C 37.8°F3.2°C 92% 3.5 mph S5.6 kmh S 3.5 mph5.6 kmh 30.19 in1022.4 mb - 0.00 in0.0 mm 0.00 in0.0 mm
04:50 AM 40.0°F4.4°C 37.9°F3.3°C 92% 3.5 mph SSW5.6 kmh SSW 4.6 mph7.4 kmh 30.18 in1022.0 mb - 0.00 in0.0 mm 0.00 in0.0 mm
04:40 AM 40.0°F4.4°C 37.9°F3.3°C 92% 3.5 mph SSW5.6 kmh SSW 3.5 mph5.6 kmh 30.18 in1022.0 mb - 0.00 in0.0 mm 0.00 in0.0 mm
04:30 AM 40.2°F4.6°C 38.1°F3.4°C 92% 3.5 mph SSW5.6 kmh SSW 4.6 mph7.4 kmh 30.18 in1022.0 mb - 0.00 in0.0 mm 0.00 in0.0 mm
04:20 AM 40.4°F4.7°C 38.0°F3.3°C 91% 2.3 mph SSW3.7 kmh SSW 3.5 mph5.6 kmh 30.18 in1022.0 mb - 0.00 in0.0 mm 0.00 in0.0 mm
04:10 AM 40.5°F4.7°C 38.1°F3.4°C 91% 2.3 mph SSW3.7 kmh SSW 3.5 mph5.6 kmh 30.18 in1022.0 mb - 0.00 in0.0 mm 0.00 in0.0 mm
04:00 AM 40.7°F4.8°C 38.6°F3.7°C 92% 2.3 mph S3.7 kmh S 3.5 mph5.6 kmh 30.18 in1022.0 mb - 0.00 in0.0 mm 0.00 in0.0 mm
03:50 AM 40.7°F4.8°C 38.6°F3.7°C 92% 3.5 mph SW5.6 kmh SW 4.6 mph7.4 kmh 30.17 in1021.7 mb - 0.00 in0.0 mm 0.00 in0.0 mm
03:40 AM 40.6°F4.8°C 38.2°F3.4°C 91% 3.5 mph SSW5.6 kmh SSW 6.9 mph11.1 kmh 30.17 in1021.7 mb - 0.00 in0.0 mm 0.00 in0.0 mm
03:30 AM 40.6°F4.8°C 38.2°F3.4°C 91% 3.5 mph SSW5.6 kmh SSW 4.6 mph7.4 kmh 30.17 in1021.7 mb - 0.00 in0.0 mm 0.00 in0.0 mm
03:20 AM 40.8°F4.9°C 38.4°F3.6°C 91% 2.3 mph SSW3.7 kmh SSW 3.5 mph5.6 kmh 30.17 in1021.7 mb - 0.00 in0.0 mm 0.00 in0.0 mm
03:10 AM 41.1°F5.1°C 38.7°F3.7°C 91% 2.3 mph SSW3.7 kmh SSW 3.5 mph5.6 kmh 30.17 in1021.7 mb - 0.00 in0.0 mm 0.00 in0.0 mm
03:00 AM 41.4°F5.2°C 39.0°F3.9°C 91% 1.2 mph SW1.9 kmh SW 3.5 mph5.6 kmh 30.17 in1021.7 mb - 0.00 in0.0 mm 0.00 in0.0 mm
02:50 AM 41.6°F5.3°C 39.2°F4.0°C 91% 3.5 mph SSW5.6 kmh SSW 3.5 mph5.6 kmh 30.16 in1021.3 mb - 0.00 in0.0 mm 0.00 in0.0 mm
02:40 AM 41.7°F5.4°C 39.3°F4.1°C 91% 3.5 mph SSW5.6 kmh SSW 6.9 mph11.1 kmh 30.16 in1021.3 mb - 0.00 in0.0 mm 0.00 in0.0 mm
02:30 AM 41.8°F5.4°C 39.3°F4.1°C 91% 2.3 mph SW3.7 kmh SW 4.6 mph7.4 kmh 30.16 in1021.3 mb - 0.00 in0.0 mm 0.00 in0.0 mm
02:20 AM 41.9°F5.5°C 39.5°F4.2°C 91% 3.5 mph SSW5.6 kmh SSW 4.6 mph7.4 kmh 30.16 in1021.3 mb - 0.00 in0.0 mm 0.00 in0.0 mm
02:10 AM 42.0°F5.6°C 39.6°F4.2°C 91% 2.3 mph SW3.7 kmh SW 3.5 mph5.6 kmh 30.16 in1021.3 mb - 0.00 in0.0 mm 0.00 in0.0 mm
02:00 AM 42.3°F5.7°C 39.9°F4.4°C 91% 2.3 mph SW3.7 kmh SW 3.5 mph5.6 kmh 30.16 in1021.3 mb - 0.00 in0.0 mm 0.00 in0.0 mm
01:50 AM 42.4°F5.8°C 40.0°F4.4°C 91% 4.6 mph SW7.4 kmh SW 8.1 mph13.0 kmh 30.16 in1021.3 mb - 0.00 in0.0 mm 0.00 in0.0 mm
01:40 AM 42.6°F5.9°C 40.2°F4.6°C 91% 3.5 mph S5.6 kmh S 5.8 mph9.3 kmh 30.15 in1021.0 mb - 0.00 in0.0 mm 0.00 in0.0 mm
01:30 AM 42.7°F5.9°C 40.2°F4.6°C 91% 5.8 mph SSW9.3 kmh SSW 8.1 mph13.0 kmh 30.15 in1021.0 mb - 0.00 in0.0 mm 0.00 in0.0 mm
01:20 AM 42.7°F5.9°C 40.3°F4.6°C 91% 4.6 mph S7.4 kmh S 5.8 mph9.3 kmh 30.14 in1020.7 mb - 0.00 in0.0 mm 0.00 in0.0 mm
01:10 AM 42.8°F6.0°C 40.3°F4.6°C 91% 4.6 mph SW7.4 kmh SW 9.2 mph14.8 kmh 30.14 in1020.7 mb - 0.00 in0.0 mm 0.00 in0.0 mm
01:00 AM 42.7°F5.9°C 40.3°F4.6°C 91% 6.9 mph SSW11.1 kmh SSW 10.4 mph16.7 kmh 30.14 in1020.7 mb - 0.00 in0.0 mm 0.00 in0.0 mm
12:50 AM 42.7°F5.9°C 40.3°F4.6°C 91% 5.8 mph SW9.3 kmh SW 8.1 mph13.0 kmh 30.14 in1020.7 mb - 0.00 in0.0 mm 0.00 in0.0 mm
12:40 AM 42.7°F5.9°C 40.3°F4.6°C 91% 3.5 mph SSW5.6 kmh SSW 8.1 mph13.0 kmh 30.13 in1020.3 mb - 0.00 in0.0 mm 0.00 in0.0 mm
12:30 AM 42.7°F5.9°C 40.3°F4.6°C 91% 6.9 mph SW11.1 kmh SW 8.1 mph13.0 kmh 30.13 in1020.3 mb - 0.00 in0.0 mm 0.00 in0.0 mm
12:20 AM 42.4°F5.8°C 40.0°F4.4°C 91% 5.8 mph SSW9.3 kmh SSW 10.4 mph16.7 kmh 30.13 in1020.3 mb - 0.00 in0.0 mm 0.00 in0.0 mm
12:10 AM 42.0°F5.6°C 39.3°F4.1°C 90% 4.6 mph SW7.4 kmh SW 5.8 mph9.3 kmh 30.13 in1020.3 mb - 0.00 in0.0 mm 0.00 in0.0 mm
12:00 AM 42.1°F5.6°C 39.4°F4.1°C 90% 2.3 mph SSW3.7 kmh SSW 3.5 mph5.6 kmh 30.14 in1020.7 mb - 0.00 in0.0 mm 0.00 in0.0 mm